sensor_id;sensor_type;location;lat;lon;timestamp;pressure;altitude;pressure_sealevel;temperature;humidity
48872;BME280;36154;51.674;7.824;2022-09-16T00:00:09;100151.06;;;24.29;46.58
48872;BME280;36154;51.674;7.824;2022-09-16T00:02:34;100151.06;;;24.29;46.94
48872;BME280;36154;51.674;7.824;2022-09-16T00:05:00;100154.56;;;24.27;46.57
48872;BME280;36154;51.674;7.824;2022-09-16T00:07:25;100160.59;;;24.28;46.83
48872;BME280;36154;51.674;7.824;2022-09-16T00:09:50;100152.81;;;24.28;46.70
48872;BME280;36154;51.674;7.824;2022-09-16T00:12:15;100162.31;;;24.29;46.46
48872;BME280;36154;51.674;7.824;2022-09-16T00:14:41;100156.28;;;24.29;46.81
48872;BME280;36154;51.674;7.824;2022-09-16T00:17:06;100156.28;;;24.29;46.67
48872;BME280;36154;51.674;7.824;2022-09-16T00:19:31;100151.97;;;24.27;46.70
48872;BME280;36154;51.674;7.824;2022-09-16T00:21:57;100153.66;;;24.29;46.52
48872;BME280;36154;51.674;7.824;2022-09-16T00:24:22;100149.38;;;24.27;46.72
48872;BME280;36154;51.674;7.824;2022-09-16T00:26:47;100150.22;;;24.28;46.93
48872;BME280;36154;51.674;7.824;2022-09-16T00:29:12;100144.19;;;24.27;46.48
48872;BME280;36154;51.674;7.824;2022-09-16T00:31:38;100147.69;;;24.26;46.45
48872;BME280;36154;51.674;7.824;2022-09-16T00:34:03;100150.38;;;24.25;46.49
48872;BME280;36154;51.674;7.824;2022-09-16T00:36:28;100147.69;;;24.26;46.45
48872;BME280;36154;51.674;7.824;2022-09-16T00:38:55;100149.50;;;24.24;46.43
48872;BME280;36154;51.674;7.824;2022-09-16T00:41:26;100152.03;;;24.26;46.53
48872;BME280;36154;51.674;7.824;2022-09-16T00:43:58;100146.84;;;24.26;46.38
48872;BME280;36154;51.674;7.824;2022-09-16T00:46:59;100156.41;;;24.25;46.54
48872;BME280;36154;51.674;7.824;2022-09-16T00:49:27;100151.22;;;24.25;46.49
48872;BME280;36154;51.674;7.824;2022-09-16T00:51:59;100151.22;;;24.25;46.34
48872;BME280;36154;51.674;7.824;2022-09-16T00:54:28;100149.50;;;24.24;46.13
48872;BME280;36154;51.674;7.824;2022-09-16T00:56:56;100147.78;;;24.25;46.05
48872;BME280;36154;51.674;7.824;2022-09-16T00:59:28;100146.00;;;24.25;46.10
48872;BME280;36154;51.674;7.824;2022-09-16T01:01:57;100147.78;;;24.25;46.29
48872;BME280;36154;51.674;7.824;2022-09-16T01:04:29;100145.19;;;24.25;46.30
48872;BME280;36154;51.674;7.824;2022-09-16T01:06:55;100146.91;;;24.24;46.02
48872;BME280;36154;51.674;7.824;2022-09-16T01:09:22;100133.91;;;24.24;45.87
48872;BME280;36154;51.674;7.824;2022-09-16T01:11:49;100140.81;;;24.25;46.17
48872;BME280;36154;51.674;7.824;2022-09-16T01:14:15;100140.81;;;24.25;46.12
48872;BME280;36154;51.674;7.824;2022-09-16T01:23:08;100134.00;;;24.23;46.28
48872;BME280;36154;51.674;7.824;2022-09-16T01:34:02;100137.59;;;24.20;45.95
48872;BME280;36154;51.674;7.824;2022-09-16T01:36:41;100138.50;;;24.19;46.04
48872;BME280;36154;51.674;7.824;2022-09-16T01:45:09;100148.00;;;24.20;46.03
48872;BME280;36154;51.674;7.824;2022-09-16T01:50:42;100150.59;;;24.20;45.86
48872;BME280;36154;51.674;7.824;2022-09-16T01:56:02;100151.50;;;24.19;46.00
48872;BME280;36154;51.674;7.824;2022-09-16T01:58:44;100152.31;;;24.20;45.81
48872;BME280;36154;51.674;7.824;2022-09-16T02:01:21;100153.19;;;24.20;45.73
48872;BME280;36154;51.674;7.824;2022-09-16T02:03:54;100148.00;;;24.20;45.72
48872;BME280;36154;51.674;7.824;2022-09-16T02:06:24;100148.00;;;24.20;45.95
48872;BME280;36154;51.674;7.824;2022-09-16T02:08:53;100142.78;;;24.20;45.58
48872;BME280;36154;51.674;7.824;2022-09-16T02:11:21;100150.59;;;24.20;46.03
48872;BME280;36154;51.674;7.824;2022-09-16T02:13:51;100139.44;;;24.18;45.78
48872;BME280;36154;51.674;7.824;2022-09-16T02:16:28;100137.59;;;24.20;45.79
48872;BME280;36154;51.674;7.824;2022-09-16T02:18:58;100137.59;;;24.20;45.51
48872;BME280;36154;51.674;7.824;2022-09-16T02:21:30;100145.41;;;24.20;45.44
48872;BME280;36154;51.674;7.824;2022-09-16T02:24:01;100141.84;;;24.21;45.49
48872;BME280;36154;51.674;7.824;2022-09-16T02:26:32;100141.84;;;24.21;45.67
48872;BME280;36154;51.674;7.824;2022-09-16T02:29:02;100139.25;;;24.21;45.44
48872;BME280;36154;51.674;7.824;2022-09-16T02:31:33;100131.47;;;24.21;45.37
48872;BME280;36154;51.674;7.824;2022-09-16T02:34:07;100128.88;;;24.21;45.62
48872;BME280;36154;51.674;7.824;2022-09-16T02:36:36;100138.34;;;24.22;45.43
48872;BME280;36154;51.674;7.824;2022-09-16T02:39:07;100139.25;;;24.21;45.60
48872;BME280;36154;51.674;7.824;2022-09-16T02:41:34;100134.06;;;24.21;45.60
48872;BME280;36154;51.674;7.824;2022-09-16T02:44:01;100131.47;;;24.21;45.51
48872;BME280;36154;51.674;7.824;2022-09-16T02:46:33;100130.56;;;24.22;45.49
48872;BME280;36154;51.674;7.824;2022-09-16T02:49:13;100134.06;;;24.21;45.51
48872;BME280;36154;51.674;7.824;2022-09-16T02:54:40;100130.72;;;24.19;45.50
48872;BME280;36154;51.674;7.824;2022-09-16T02:57:09;100139.34;;;24.20;45.32
48872;BME280;36154;51.674;7.824;2022-09-16T02:59:36;100125.50;;;24.19;45.32
48872;BME280;36154;51.674;7.824;2022-09-16T03:02:02;100125.50;;;24.19;45.47
48872;BME280;36154;51.674;7.824;2022-09-16T03:04:28;100127.19;;;24.20;45.15
48872;BME280;36154;51.674;7.824;2022-09-16T03:06:53;100132.25;;;24.23;45.17
48872;BME280;36154;51.674;7.824;2022-09-16T03:09:19;100130.50;;;24.24;45.19
48872;BME280;36154;51.674;7.824;2022-09-16T03:17:44;100119.94;;;24.27;45.05
48872;BME280;36154;51.674;7.824;2022-09-16T03:20:57;100122.47;;;24.29;44.86
48872;BME280;36154;51.674;7.824;2022-09-16T03:26:03;100120.78;;;24.27;44.89
48872;BME280;36154;51.674;7.824;2022-09-16T03:31:09;100107.78;;;24.27;44.90
48872;BME280;36154;51.674;7.824;2022-09-16T03:33:46;100114.69;;;24.29;44.59
48872;BME280;36154;51.674;7.824;2022-09-16T03:36:19;100109.47;;;24.29;45.01
48872;BME280;36154;51.674;7.824;2022-09-16T03:38:47;100100.91;;;24.26;45.07
48872;BME280;36154;51.674;7.824;2022-09-16T03:41:14;100105.25;;;24.26;45.05
48872;BME280;36154;51.674;7.824;2022-09-16T03:43:51;100100.91;;;24.26;44.98
48872;BME280;36154;51.674;7.824;2022-09-16T03:46:17;100100.91;;;24.26;44.90
48872;BME280;36154;51.674;7.824;2022-09-16T03:48:42;100099.16;;;24.27;44.90
48872;BME280;36154;51.674;7.824;2022-09-16T03:51:07;100106.88;;;24.29;44.92
48872;BME280;36154;51.674;7.824;2022-09-16T03:53:32;100110.31;;;24.29;44.45
48872;BME280;36154;51.674;7.824;2022-09-16T03:55:58;100109.47;;;24.29;44.86
48872;BME280;36154;51.674;7.824;2022-09-16T03:58:23;100109.47;;;24.29;44.59
48872;BME280;36154;51.674;7.824;2022-09-16T04:00:48;100110.31;;;24.29;44.72
48872;BME280;36154;51.674;7.824;2022-09-16T04:03:15;100118.19;;;24.27;44.52
48872;BME280;36154;51.674;7.824;2022-09-16T04:05:40;100114.69;;;24.29;44.45
48872;BME280;36154;51.674;7.824;2022-09-16T04:08:05;100112.91;;;24.29;44.55
48872;BME280;36154;51.674;7.824;2022-09-16T04:10:30;100097.38;;;24.27;44.79
48872;BME280;36154;51.674;7.824;2022-09-16T04:12:59;100102.59;;;24.27;44.40
48872;BME280;36154;51.674;7.824;2022-09-16T04:15:24;100105.94;;;24.30;44.42
48872;BME280;36154;51.674;7.824;2022-09-16T04:17:50;100099.09;;;24.29;44.51
48872;BME280;36154;51.674;7.824;2022-09-16T04:20:15;100096.50;;;24.29;44.47
48872;BME280;36154;51.674;7.824;2022-09-16T04:22:40;100099.09;;;24.29;44.58
48872;BME280;36154;51.674;7.824;2022-09-16T04:25:06;100097.31;;;24.29;44.88
48872;BME280;36154;51.674;7.824;2022-09-16T04:27:32;100099.09;;;24.29;44.62
48872;BME280;36154;51.674;7.824;2022-09-16T04:29:57;100095.56;;;24.30;44.94
48872;BME280;36154;51.674;7.824;2022-09-16T04:32:23;100095.56;;;24.30;45.11
48872;BME280;36154;51.674;7.824;2022-09-16T04:34:48;100086.84;;;24.31;44.99
48872;BME280;36154;51.674;7.824;2022-09-16T04:37:13;100103.28;;;24.31;44.85
48872;BME280;36154;51.674;7.824;2022-09-16T04:39:38;100100.75;;;24.30;45.21
48872;BME280;36154;51.674;7.824;2022-09-16T04:42:04;100092.88;;;24.31;44.93
48872;BME280;36154;51.674;7.824;2022-09-16T04:44:31;100091.13;;;24.32;44.89
48872;BME280;36154;51.674;7.824;2022-09-16T04:46:56;100104.13;;;24.32;45.15
48872;BME280;36154;51.674;7.824;2022-09-16T04:49:21;100096.41;;;24.30;45.00
48872;BME280;36154;51.674;7.824;2022-09-16T04:51:47;100093.03;;;24.28;45.13
48872;BME280;36154;51.674;7.824;2022-09-16T04:54:12;100095.69;;;24.26;45.06
48872;BME280;36154;51.674;7.824;2022-09-16T04:56:38;100089.75;;;24.24;45.11
48872;BME280;36154;51.674;7.824;2022-09-16T04:59:04;100095.88;;;24.23;45.44
48872;BME280;36154;51.674;7.824;2022-09-16T05:01:33;100088.97;;;24.22;45.48
48872;BME280;36154;51.674;7.824;2022-09-16T05:04:00;100088.06;;;24.23;45.69
48872;BME280;36154;51.674;7.824;2022-09-16T05:06:34;100091.50;;;24.24;45.57
48872;BME280;36154;51.674;7.824;2022-09-16T05:09:00;100090.66;;;24.23;45.59
48872;BME280;36154;51.674;7.824;2022-09-16T05:11:28;100092.34;;;24.24;45.78
48872;BME280;36154;51.674;7.824;2022-09-16T05:13:56;100089.66;;;24.26;45.70
48872;BME280;36154;51.674;7.824;2022-09-16T05:16:23;100091.38;;;24.27;45.51
48872;BME280;36154;51.674;7.824;2022-09-16T05:18:53;100096.50;;;24.29;45.76
48872;BME280;36154;51.674;7.824;2022-09-16T05:21:20;100088.69;;;24.29;45.86
48872;BME280;36154;51.674;7.824;2022-09-16T05:23:46;100095.56;;;24.30;45.68
48872;BME280;36154;51.674;7.824;2022-09-16T05:26:20;100096.50;;;24.29;45.55
48872;BME280;36154;51.674;7.824;2022-09-16T05:28:46;100092.03;;;24.31;45.50
48872;BME280;36154;51.674;7.824;2022-09-16T05:31:39;100098.16;;;24.30;45.44
48872;BME280;36154;51.674;7.824;2022-09-16T05:36:33;100087.75;;;24.30;45.41
48872;BME280;36154;51.674;7.824;2022-09-16T05:38:59;100090.34;;;24.30;45.63
48872;BME280;36154;51.674;7.824;2022-09-16T05:41:25;100093.75;;;24.32;45.46
48872;BME280;36154;51.674;7.824;2022-09-16T05:43:50;100096.34;;;24.32;45.86
48872;BME280;36154;51.674;7.824;2022-09-16T05:46:22;100093.75;;;24.32;45.36
48872;BME280;36154;51.674;7.824;2022-09-16T05:48:48;100092.03;;;24.31;45.46
48872;BME280;36154;51.674;7.824;2022-09-16T05:51:16;100090.22;;;24.33;45.69
48872;BME280;36154;51.674;7.824;2022-09-16T05:53:42;100094.56;;;24.32;45.52
48872;BME280;36154;51.674;7.824;2022-09-16T05:56:16;100088.53;;;24.32;45.51
48872;BME280;36154;51.674;7.824;2022-09-16T05:58:42;100094.56;;;24.32;45.49
48872;BME280;36154;51.674;7.824;2022-09-16T06:01:10;100087.59;;;24.33;45.61
48872;BME280;36154;51.674;7.824;2022-09-16T06:03:38;100097.09;;;24.34;45.71
48872;BME280;36154;51.674;7.824;2022-09-16T06:06:04;100101.44;;;24.33;45.73
48872;BME280;36154;51.674;7.824;2022-09-16T06:08:33;100087.59;;;24.33;45.76
48872;BME280;36154;51.674;7.824;2022-09-16T06:11:03;100093.63;;;24.33;45.88
48872;BME280;36154;51.674;7.824;2022-09-16T06:13:29;100092.81;;;24.33;45.59
48872;BME280;36154;51.674;7.824;2022-09-16T06:15:55;100097.09;;;24.34;45.64
48872;BME280;36154;51.674;7.824;2022-09-16T06:18:22;100103.13;;;24.34;45.94
48872;BME280;36154;51.674;7.824;2022-09-16T06:20:47;100104.91;;;24.34;45.96
48872;BME280;36154;51.674;7.824;2022-09-16T06:23:14;100109.16;;;24.35;45.74
48872;BME280;36154;51.674;7.824;2022-09-16T06:25:39;100111.75;;;24.35;45.96
48872;BME280;36154;51.674;7.824;2022-09-16T06:28:05;100113.44;;;24.36;45.83
48872;BME280;36154;51.674;7.824;2022-09-16T06:30:30;100110.84;;;24.36;46.00
48872;BME280;36154;51.674;7.824;2022-09-16T06:32:56;100116.88;;;24.36;45.95
48872;BME280;36154;51.674;7.824;2022-09-16T06:35:21;100116.06;;;24.36;45.73
48872;BME280;36154;51.674;7.824;2022-09-16T06:37:46;100120.28;;;24.38;45.51
48872;BME280;36154;51.674;7.824;2022-09-16T06:40:12;100119.41;;;24.38;45.63
48872;BME280;36154;51.674;7.824;2022-09-16T06:42:37;100120.34;;;24.37;45.63
48872;BME280;36154;51.674;7.824;2022-09-16T06:45:03;100119.41;;;24.38;45.93
48872;BME280;36154;51.674;7.824;2022-09-16T06:47:29;100118.50;;;24.39;45.86
48872;BME280;36154;51.674;7.824;2022-09-16T06:49:58;100115.91;;;24.39;45.60
48872;BME280;36154;51.674;7.824;2022-09-16T06:52:24;100123.72;;;24.39;45.86
48872;BME280;36154;51.674;7.824;2022-09-16T06:54:49;100125.38;;;24.40;45.47
48872;BME280;36154;51.674;7.824;2022-09-16T06:57:15;100122.78;;;24.40;45.76
48872;BME280;36154;51.674;7.824;2022-09-16T06:59:40;100119.34;;;24.39;45.55
48872;BME280;36154;51.674;7.824;2022-09-16T07:02:07;100120.09;;;24.41;45.53
48872;BME280;36154;51.674;7.824;2022-09-16T07:04:33;100129.66;;;24.41;45.77
48872;BME280;36154;51.674;7.824;2022-09-16T07:06:59;100133.03;;;24.43;45.68
48872;BME280;36154;51.674;7.824;2022-09-16T07:09:24;100129.53;;;24.44;45.40
48872;BME280;36154;51.674;7.824;2022-09-16T07:11:50;100124.31;;;24.44;45.83
48872;BME280;36154;51.674;7.824;2022-09-16T07:14:15;100127.00;;;24.42;45.22
48872;BME280;36154;51.674;7.824;2022-09-16T07:16:40;100126.31;;;24.39;45.47
48872;BME280;36154;51.674;7.824;2022-09-16T07:19:06;100127.22;;;24.38;45.62
48872;BME280;36154;51.674;7.824;2022-09-16T07:21:31;100131.66;;;24.36;45.57
48872;BME280;36154;51.674;7.824;2022-09-16T07:23:58;100123.09;;;24.34;45.83
48872;BME280;36154;51.674;7.824;2022-09-16T07:26:27;100128.28;;;24.34;45.75
48872;BME280;36154;51.674;7.824;2022-09-16T07:28:53;100133.56;;;24.32;45.44
48872;BME280;36154;51.674;7.824;2022-09-16T07:31:24;100132.81;;;24.30;45.80
48872;BME280;36154;51.674;7.824;2022-09-16T07:33:52;100133.63;;;24.31;45.61
48872;BME280;36154;51.674;7.824;2022-09-16T07:36:21;100128.50;;;24.29;45.84
48872;BME280;36154;51.674;7.824;2022-09-16T07:38:47;100133.78;;;24.27;45.75
48872;BME280;36154;51.674;7.824;2022-09-16T07:41:18;100131.19;;;24.27;45.77
48872;BME280;36154;51.674;7.824;2022-09-16T07:43:44;100127.81;;;24.25;45.87
48872;BME280;36154;51.674;7.824;2022-09-16T07:46:11;100133.03;;;24.25;45.86
48872;BME280;36154;51.674;7.824;2022-09-16T07:48:37;100130.41;;;24.25;45.56
48872;BME280;36154;51.674;7.824;2022-09-16T07:53:30;100133.09;;;24.24;46.02
48872;BME280;36154;51.674;7.824;2022-09-16T07:56:03;100137.47;;;24.23;45.69
48872;BME280;36154;51.674;7.824;2022-09-16T07:58:29;100135.75;;;24.22;45.75
48872;BME280;36154;51.674;7.824;2022-09-16T08:00:54;100143.56;;;24.22;45.51
48872;BME280;36154;51.674;7.824;2022-09-16T08:03:20;100146.16;;;24.22;45.49
48872;BME280;36154;51.674;7.824;2022-09-16T08:05:46;100140.97;;;24.22;45.80
48872;BME280;36154;51.674;7.824;2022-09-16T08:08:11;100156.56;;;24.22;45.61
48872;BME280;36154;51.674;7.824;2022-09-16T08:10:37;100153.19;;;24.20;45.78
48872;BME280;36154;51.674;7.824;2022-09-16T08:13:03;100156.63;;;24.21;45.54
48872;BME280;36154;51.674;7.824;2022-09-16T08:15:29;100149.66;;;24.21;45.59
48872;BME280;36154;51.674;7.824;2022-09-16T08:17:55;100148.00;;;24.20;45.62
48872;BME280;36154;51.674;7.824;2022-09-16T08:20:20;100148.00;;;24.20;45.40
48872;BME280;36154;51.674;7.824;2022-09-16T08:22:46;100148.00;;;24.20;45.26
48872;BME280;36154;51.674;7.824;2022-09-16T08:25:11;100154.94;;;24.20;45.33
48872;BME280;36154;51.674;7.824;2022-09-16T08:27:37;100149.72;;;24.20;45.62
48872;BME280;36154;51.674;7.824;2022-09-16T08:30:03;100158.38;;;24.20;45.68
48872;BME280;36154;51.674;7.824;2022-09-16T08:32:29;100158.38;;;24.20;45.53
48872;BME280;36154;51.674;7.824;2022-09-16T08:34:55;100158.38;;;24.20;45.60
48872;BME280;36154;51.674;7.824;2022-09-16T08:37:20;100161.00;;;24.20;45.49
48872;BME280;36154;51.674;7.824;2022-09-16T08:39:46;100151.50;;;24.19;45.76
48872;BME280;36154;51.674;7.824;2022-09-16T08:50:29;100152.50;;;24.17;45.52
48872;BME280;36154;51.674;7.824;2022-09-16T08:52:56;100158.53;;;24.17;45.40
48872;BME280;36154;51.674;7.824;2022-09-16T08:55:31;100151.63;;;24.16;45.39
48872;BME280;36154;51.674;7.824;2022-09-16T08:58:22;100155.09;;;24.17;45.62
48872;BME280;36154;51.674;7.824;2022-09-16T09:00:54;100156.84;;;24.16;45.52
48872;BME280;36154;51.674;7.824;2022-09-16T09:03:50;100155.16;;;24.15;45.55
48872;BME280;36154;51.674;7.824;2022-09-16T09:06:26;100155.16;;;24.15;45.36
48872;BME280;36154;51.674;7.824;2022-09-16T09:09:14;100155.16;;;24.15;45.22
48872;BME280;36154;51.674;7.824;2022-09-16T09:11:54;100159.50;;;24.15;45.35
48872;BME280;36154;51.674;7.824;2022-09-16T09:20:19;100163.88;;;24.14;45.15
48872;BME280;36154;51.674;7.824;2022-09-16T09:30:52;100158.66;;;24.14;45.20
48872;BME280;36154;51.674;7.824;2022-09-16T09:33:37;100149.19;;;24.13;45.50
48872;BME280;36154;51.674;7.824;2022-09-16T09:44:27;100158.66;;;24.14;45.21
48872;BME280;36154;51.674;7.824;2022-09-16T09:47:02;100139.66;;;24.14;45.08
48872;BME280;36154;51.674;7.824;2022-09-16T09:52:01;100136.84;;;24.18;45.18
48872;BME280;36154;51.674;7.824;2022-09-16T09:54:36;100146.22;;;24.21;44.88
48872;BME280;36154;51.674;7.824;2022-09-16T09:57:12;100142.66;;;24.23;45.04
48872;BME280;36154;51.674;7.824;2022-09-16T10:00:03;100149.50;;;24.24;45.09
48872;BME280;36154;51.674;7.824;2022-09-16T10:02:33;100149.38;;;24.27;44.90
48872;BME280;36154;51.674;7.824;2022-09-16T10:05:03;100146.78;;;24.27;44.99
48872;BME280;36154;51.674;7.824;2022-09-16T10:07:29;100141.50;;;24.29;44.81
48872;BME280;36154;51.674;7.824;2022-09-16T10:12:32;100144.03;;;24.31;44.68
48872;BME280;36154;51.674;7.824;2022-09-16T10:14:58;100139.59;;;24.33;44.86
48872;BME280;36154;51.674;7.824;2022-09-16T10:17:24;100129.19;;;24.33;44.55
48872;BME280;36154;51.674;7.824;2022-09-16T10:20:33;100130.88;;;24.34;44.62
48872;BME280;36154;51.674;7.824;2022-09-16T10:23:03;100128.28;;;24.34;44.86
48872;BME280;36154;51.674;7.824;2022-09-16T10:25:30;100140.34;;;24.35;45.01
48872;BME280;36154;51.674;7.824;2022-09-16T10:28:03;100139.44;;;24.36;44.57
48872;BME280;36154;51.674;7.824;2022-09-16T10:30:30;100125.69;;;24.34;44.87
48872;BME280;36154;51.674;7.824;2022-09-16T10:33:00;100129.13;;;24.34;44.77
48872;BME280;36154;51.674;7.824;2022-09-16T10:35:29;100118.72;;;24.34;44.61
48872;BME280;36154;51.674;7.824;2022-09-16T10:37:56;100121.25;;;24.36;44.76
48872;BME280;36154;51.674;7.824;2022-09-16T10:40:23;100114.22;;;24.38;44.41
48872;BME280;36154;51.674;7.824;2022-09-16T10:42:53;100114.22;;;24.38;44.75
48872;BME280;36154;51.674;7.824;2022-09-16T10:45:29;100117.56;;;24.40;44.47
48872;BME280;36154;51.674;7.824;2022-09-16T10:47:58;100114.06;;;24.41;44.78
48872;BME280;36154;51.674;7.824;2022-09-16T10:50:24;100104.50;;;24.41;44.45
48872;BME280;36154;51.674;7.824;2022-09-16T10:52:51;100121.78;;;24.42;44.44
48872;BME280;36154;51.674;7.824;2022-09-16T10:55:27;100115.75;;;24.42;44.33
48872;BME280;36154;51.674;7.824;2022-09-16T10:58:15;100116.66;;;24.41;44.39
48872;BME280;36154;51.674;7.824;2022-09-16T11:00:55;100115.75;;;24.42;44.42
48872;BME280;36154;51.674;7.824;2022-09-16T11:06:44;100125.31;;;24.41;44.54
48872;BME280;36154;51.674;7.824;2022-09-16T11:17:40;100144.28;;;24.43;44.58
48872;BME280;36154;51.674;7.824;2022-09-16T11:23:04;100143.44;;;24.43;44.51
48872;BME280;36154;51.674;7.824;2022-09-16T11:25:49;100142.53;;;24.44;44.36
48872;BME280;36154;51.674;7.824;2022-09-16T11:30:58;100135.47;;;24.46;44.54
48872;BME280;36154;51.674;7.824;2022-09-16T11:33:37;100133.63;;;24.48;44.25
48872;BME280;36154;51.674;7.824;2022-09-16T11:36:39;100134.44;;;24.50;44.18
48872;BME280;36154;51.674;7.824;2022-09-16T11:41:54;100128.16;;;24.54;44.33
48872;BME280;36154;51.674;7.824;2022-09-16T11:44:32;100132.47;;;24.55;43.99
48872;BME280;36154;51.674;7.824;2022-09-16T11:47:03;100143.63;;;24.57;44.34
48872;BME280;36154;51.674;7.824;2022-09-16T11:55:29;100134.13;;;24.56;43.99
48872;BME280;36154;51.674;7.824;2022-09-16T11:58:01;100138.34;;;24.59;44.33
48872;BME280;36154;51.674;7.824;2022-09-16T12:00:30;100130.56;;;24.59;44.57
48872;BME280;36154;51.674;7.824;2022-09-16T12:03:01;100138.34;;;24.59;44.28
48872;BME280;36154;51.674;7.824;2022-09-16T12:05:46;100135.69;;;24.60;43.89
48872;BME280;36154;51.674;7.824;2022-09-16T12:08:43;100133.84;;;24.62;44.13
48872;BME280;36154;51.674;7.824;2022-09-16T12:11:20;100128.63;;;24.62;44.05
48872;BME280;36154;51.674;7.824;2022-09-16T12:13:54;100129.41;;;24.65;43.95
48872;BME280;36154;51.674;7.824;2022-09-16T12:16:55;100128.34;;;24.69;44.19
48872;BME280;36154;51.674;7.824;2022-09-16T12:19:33;100126.50;;;24.71;43.92
48872;BME280;36154;51.674;7.824;2022-09-16T12:22:07;100127.25;;;24.73;44.23
48872;BME280;36154;51.674;7.824;2022-09-16T12:25:13;100118.47;;;24.75;43.75
48872;BME280;36154;51.674;7.824;2022-09-16T12:28:11;100126.19;;;24.77;43.93
48872;BME280;36154;51.674;7.824;2022-09-16T12:30:41;100123.50;;;24.78;43.94
48872;BME280;36154;51.674;7.824;2022-09-16T12:33:25;100119.16;;;24.79;43.71
48872;BME280;36154;51.674;7.824;2022-09-16T12:36:03;100133.81;;;24.80;44.09
48872;BME280;36154;51.674;7.824;2022-09-16T12:38:29;100128.63;;;24.80;43.90
48872;BME280;36154;51.674;7.824;2022-09-16T12:46:58;100132.00;;;24.82;43.61
48872;BME280;36154;51.674;7.824;2022-09-16T12:52:25;100134.84;;;24.77;43.78
48872;BME280;36154;51.674;7.824;2022-09-16T13:03:53;100124.59;;;24.74;43.76
48872;BME280;36154;51.674;7.824;2022-09-16T13:06:29;100120.34;;;24.72;44.23
48872;BME280;36154;51.674;7.824;2022-09-16T13:09:12;100121.16;;;24.74;44.10
48872;BME280;36154;51.674;7.824;2022-09-16T13:11:39;100128.94;;;24.74;44.18
48872;BME280;36154;51.674;7.824;2022-09-16T13:14:23;100121.16;;;24.74;44.51
48872;BME280;36154;51.674;7.824;2022-09-16T13:16:54;100125.34;;;24.76;44.07
48872;BME280;36154;51.674;7.824;2022-09-16T13:19:36;100111.34;;;24.79;44.30
48872;BME280;36154;51.674;7.824;2022-09-16T13:25:10;100107.19;;;24.92;44.07
48872;BME280;36154;51.674;7.824;2022-09-16T13:27:54;100100.81;;;24.98;43.73
48872;BME280;36154;51.674;7.824;2022-09-16T13:37:46;100104.09;;;25.19;44.45
48872;BME280;36154;51.674;7.824;2022-09-16T13:40:22;100100.38;;;25.23;44.41
48872;BME280;36154;51.674;7.824;2022-09-16T13:42:48;100111.41;;;25.28;44.73
48872;BME280;36154;51.674;7.824;2022-09-16T13:45:42;100102.53;;;25.32;44.74
48872;BME280;36154;51.674;7.824;2022-09-16T13:48:17;100097.16;;;25.35;44.94
48872;BME280;36154;51.674;7.824;2022-09-16T13:50:57;100098.69;;;25.40;45.08
48872;BME280;36154;51.674;7.824;2022-09-16T13:53:28;100088.09;;;25.43;44.82
48872;BME280;36154;51.674;7.824;2022-09-16T13:55:59;100100.03;;;25.47;45.24
48872;BME280;36154;51.674;7.824;2022-09-16T13:58:37;100091.13;;;25.51;44.72
48872;BME280;36154;51.674;7.824;2022-09-16T14:01:21;100097.00;;;25.54;44.53
48872;BME280;36154;51.674;7.824;2022-09-16T14:04:17;100086.50;;;25.56;44.59
48872;BME280;36154;51.674;7.824;2022-09-16T14:07:09;100083.75;;;25.59;44.60
48872;BME280;36154;51.674;7.824;2022-09-16T14:09:49;100081.88;;;25.61;44.70
48872;BME280;36154;51.674;7.824;2022-09-16T14:12:28;100096.50;;;25.64;44.71
48872;BME280;36154;51.674;7.824;2022-09-16T14:14:59;100090.28;;;25.66;44.88
48872;BME280;36154;51.674;7.824;2022-09-16T14:17:26;100090.13;;;25.69;44.73
48872;BME280;36154;51.674;7.824;2022-09-16T14:19:57;100097.84;;;25.71;44.34
48872;BME280;36154;51.674;7.824;2022-09-16T14:22:23;100091.63;;;25.73;44.21
48872;BME280;36154;51.674;7.824;2022-09-16T14:24:52;100091.47;;;25.77;44.52
48872;BME280;36154;51.674;7.824;2022-09-16T14:29:54;100084.22;;;25.82;44.39
48872;BME280;36154;51.674;7.824;2022-09-16T14:32:23;100087.56;;;25.84;44.70
48872;BME280;36154;51.674;7.824;2022-09-16T14:34:48;100076.25;;;25.85;44.09
48872;BME280;36154;51.674;7.824;2022-09-16T14:37:17;100086.56;;;25.86;44.07
48872;BME280;36154;51.674;7.824;2022-09-16T14:39:44;100095.16;;;25.88;44.48
48872;BME280;36154;51.674;7.824;2022-09-16T14:42:14;100090.75;;;25.89;43.99
48872;BME280;36154;51.674;7.824;2022-09-16T14:44:45;100088.94;;;25.91;43.88
48872;BME280;36154;51.674;7.824;2022-09-16T14:47:22;100098.41;;;25.92;43.87
48872;BME280;36154;51.674;7.824;2022-09-16T14:50:12;100090.59;;;25.92;43.87
48872;BME280;36154;51.674;7.824;2022-09-16T14:52:39;100099.16;;;25.94;44.18
48872;BME280;36154;51.674;7.824;2022-09-16T14:55:18;100087.91;;;25.93;44.07
48872;BME280;36154;51.674;7.824;2022-09-16T14:57:44;100090.47;;;25.95;44.05
48872;BME280;36154;51.674;7.824;2022-09-16T15:00:12;100087.78;;;25.97;43.73
48872;BME280;36154;51.674;7.824;2022-09-16T15:02:44;100080.78;;;25.97;43.86
48872;BME280;36154;51.674;7.824;2022-09-16T15:05:32;100079.88;;;25.98;43.93
48872;BME280;36154;51.674;7.824;2022-09-16T15:10:31;100083.22;;;26.00;43.83
48872;BME280;36154;51.674;7.824;2022-09-16T15:13:02;100074.50;;;26.01;44.16
48872;BME280;36154;51.674;7.824;2022-09-16T15:15:31;100081.34;;;26.02;43.71
48872;BME280;36154;51.674;7.824;2022-09-16T15:18:04;100072.63;;;26.03;43.79
48872;BME280;36154;51.674;7.824;2022-09-16T15:20:31;100070.94;;;26.02;43.48
48872;BME280;36154;51.674;7.824;2022-09-16T15:22:57;100074.50;;;26.01;43.81
48872;BME280;36154;51.674;7.824;2022-09-16T15:25:26;100078.09;;;25.99;44.00
48872;BME280;36154;51.674;7.824;2022-09-16T15:28:04;100078.31;;;25.94;43.91